sensor_id;sensor_type;location;lat;lon;timestamp;pressure;altitude;pressure_sealevel;temperature;humidity
18987;BME280;9627;59.236;18.142;2022-09-13T00:02:00;100579.25;;;12.13;100.00
18987;BME280;9627;59.236;18.142;2022-09-13T00:04:27;100575.34;;;12.15;100.00
18987;BME280;9627;59.236;18.142;2022-09-13T00:06:54;100573.72;;;12.14;100.00
18987;BME280;9627;59.236;18.142;2022-09-13T00:09:21;100573.72;;;12.14;100.00
18987;BME280;9627;59.236;18.142;2022-09-13T00:11:50;100572.69;;;12.15;100.00
18987;BME280;9627;59.236;18.142;2022-09-13T00:14:17;100576.81;;;12.18;100.00
18987;BME280;9627;59.236;18.142;2022-09-13T00:16:44;100569.66;;;12.18;100.00
18987;BME280;9627;59.236;18.142;2022-09-13T00:19:11;100570.28;;;12.20;100.00
18987;BME280;9627;59.236;18.142;2022-09-13T00:21:38;100573.72;;;12.21;100.00
18987;BME280;9627;59.236;18.142;2022-09-13T00:24:05;100571.06;;;12.14;100.00
18987;BME280;9627;59.236;18.142;2022-09-13T00:26:32;100559.16;;;12.10;100.00
18987;BME280;9627;59.236;18.142;2022-09-13T00:29:00;100565.69;;;12.07;100.00
18987;BME280;9627;59.236;18.142;2022-09-13T00:31:27;100557.72;;;12.07;100.00
18987;BME280;9627;59.236;18.142;2022-09-13T00:33:54;100549.16;;;12.12;100.00
18987;BME280;9627;59.236;18.142;2022-09-13T00:36:22;100548.31;;;12.11;100.00
18987;BME280;9627;59.236;18.142;2022-09-13T00:38:49;100553.47;;;12.20;100.00
18987;BME280;9627;59.236;18.142;2022-09-13T00:41:16;100542.00;;;12.13;100.00
18987;BME280;9627;59.236;18.142;2022-09-13T00:43:45;100534.59;;;12.08;100.00
18987;BME280;9627;59.236;18.142;2022-09-13T00:46:15;100530.84;;;11.96;100.00
18987;BME280;9627;59.236;18.142;2022-09-13T00:48:43;100523.03;;;11.88;100.00
18987;BME280;9627;59.236;18.142;2022-09-13T00:51:12;100513.81;;;11.84;100.00
18987;BME280;9627;59.236;18.142;2022-09-13T00:53:40;100514.25;;;11.94;100.00
18987;BME280;9627;59.236;18.142;2022-09-13T00:56:10;100514.94;;;12.02;100.00
18987;BME280;9627;59.236;18.142;2022-09-13T00:58:38;100511.47;;;12.08;100.00
18987;BME280;9627;59.236;18.142;2022-09-13T01:01:07;100512.94;;;12.18;100.00
18987;BME280;9627;59.236;18.142;2022-09-13T01:03:36;100516.06;;;12.28;100.00
18987;BME280;9627;59.236;18.142;2022-09-13T01:06:05;100507.03;;;12.29;100.00
18987;BME280;9627;59.236;18.142;2022-09-13T01:08:34;100501.50;;;12.30;100.00
18987;BME280;9627;59.236;18.142;2022-09-13T01:11:02;100498.03;;;12.30;100.00
18987;BME280;9627;59.236;18.142;2022-09-13T01:13:33;100491.69;;;12.31;100.00
18987;BME280;9627;59.236;18.142;2022-09-13T01:16:01;100492.94;;;12.35;100.00
18987;BME280;9627;59.236;18.142;2022-09-13T01:18:28;100476.75;;;12.36;100.00
18987;BME280;9627;59.236;18.142;2022-09-13T01:26:31;100466.13;;;12.43;100.00
18987;BME280;9627;59.236;18.142;2022-09-13T01:29:11;100462.03;;;12.40;100.00
18987;BME280;9627;59.236;18.142;2022-09-13T01:31:48;100455.47;;;12.49;100.00
18987;BME280;9627;59.236;18.142;2022-09-13T01:34:23;100441.97;;;12.51;100.00
18987;BME280;9627;59.236;18.142;2022-09-13T01:37:01;100445.84;;;12.55;100.00
18987;BME280;9627;59.236;18.142;2022-09-13T01:39:33;100445.47;;;12.58;100.00
18987;BME280;9627;59.236;18.142;2022-09-13T01:42:07;100445.88;;;12.61;100.00
18987;BME280;9627;59.236;18.142;2022-09-13T01:44:40;100438.72;;;12.62;100.00
18987;BME280;9627;59.236;18.142;2022-09-13T01:47:15;100437.69;;;12.69;100.00
18987;BME280;9627;59.236;18.142;2022-09-13T01:49:45;100429.91;;;12.61;100.00
18987;BME280;9627;59.236;18.142;2022-09-13T01:52:15;100425.38;;;12.68;100.00
18987;BME280;9627;59.236;18.142;2022-09-13T01:54:45;100415.75;;;12.61;100.00
18987;BME280;9627;59.236;18.142;2022-09-13T01:57:14;100417.41;;;12.62;100.00
18987;BME280;9627;59.236;18.142;2022-09-13T01:59:45;100414.75;;;12.75;100.00
18987;BME280;9627;59.236;18.142;2022-09-13T02:02:15;100405.53;;;12.71;100.00
18987;BME280;9627;59.236;18.142;2022-09-13T02:04:46;100401.41;;;12.68;100.00
18987;BME280;9627;59.236;18.142;2022-09-13T02:07:15;100391.00;;;12.73;100.00
18987;BME280;9627;59.236;18.142;2022-09-13T02:09:45;100386.28;;;12.75;100.00
18987;BME280;9627;59.236;18.142;2022-09-13T02:12:15;100383.41;;;12.77;100.00
18987;BME280;9627;59.236;18.142;2022-09-13T02:14:45;100374.38;;;12.84;100.00
18987;BME280;9627;59.236;18.142;2022-09-13T02:17:17;100376.22;;;12.90;100.00
18987;BME280;9627;59.236;18.142;2022-09-13T02:19:48;100369.03;;;12.91;100.00
18987;BME280;9627;59.236;18.142;2022-09-13T02:22:18;100371.47;;;12.99;100.00
18987;BME280;9627;59.236;18.142;2022-09-13T02:24:47;100367.41;;;13.03;100.00
18987;BME280;9627;59.236;18.142;2022-09-13T02:27:18;100363.50;;;13.06;100.00
18987;BME280;9627;59.236;18.142;2022-09-13T02:29:46;100349.34;;;13.05;100.00
18987;BME280;9627;59.236;18.142;2022-09-13T02:32:17;100353.66;;;13.13;100.00
18987;BME280;9627;59.236;18.142;2022-09-13T02:34:49;100337.66;;;13.19;100.00
18987;BME280;9627;59.236;18.142;2022-09-13T02:37:18;100348.09;;;13.21;100.00
18987;BME280;9627;59.236;18.142;2022-09-13T02:39:46;100336.81;;;13.19;100.00
18987;BME280;9627;59.236;18.142;2022-09-13T02:42:16;100328.81;;;13.19;100.00
18987;BME280;9627;59.236;18.142;2022-09-13T02:44:45;100328.81;;;13.19;100.00
18987;BME280;9627;59.236;18.142;2022-09-13T02:47:32;100319.59;;;13.21;100.00
18987;BME280;9627;59.236;18.142;2022-09-13T02:50:06;100318.09;;;13.32;100.00
18987;BME280;9627;59.236;18.142;2022-09-13T02:52:37;100311.72;;;13.39;100.00
18987;BME280;9627;59.236;18.142;2022-09-13T02:55:13;100303.09;;;13.44;100.00
18987;BME280;9627;59.236;18.142;2022-09-13T02:57:46;100298.31;;;13.52;100.00
18987;BME280;9627;59.236;18.142;2022-09-13T03:00:16;100298.09;;;13.54;100.00
18987;BME280;9627;59.236;18.142;2022-09-13T03:02:45;100285.13;;;13.64;100.00
18987;BME280;9627;59.236;18.142;2022-09-13T03:05:13;100285.72;;;13.72;100.00
18987;BME280;9627;59.236;18.142;2022-09-13T03:07:39;100288.69;;;13.82;100.00
18987;BME280;9627;59.236;18.142;2022-09-13T03:10:07;100286.59;;;13.91;100.00
18987;BME280;9627;59.236;18.142;2022-09-13T03:12:42;100274.72;;;13.87;100.00
18987;BME280;9627;59.236;18.142;2022-09-13T03:15:14;100277.78;;;13.90;100.00
18987;BME280;9627;59.236;18.142;2022-09-13T03:17:51;100278.34;;;13.99;100.00
18987;BME280;9627;59.236;18.142;2022-09-13T03:20:23;100269.28;;;14.00;100.00
18987;BME280;9627;59.236;18.142;2022-09-13T03:23:01;100260.03;;;14.03;100.00
18987;BME280;9627;59.236;18.142;2022-09-13T03:25:38;100246.03;;;14.07;100.00
18987;BME280;9627;59.236;18.142;2022-09-13T03:28:11;100255.63;;;14.15;100.00
18987;BME280;9627;59.236;18.142;2022-09-13T03:30:45;100249.38;;;14.27;100.00
18987;BME280;9627;59.236;18.142;2022-09-13T03:33:19;100233.13;;;14.29;100.00
18987;BME280;9627;59.236;18.142;2022-09-13T03:35:51;100239.69;;;14.26;100.00
18987;BME280;9627;59.236;18.142;2022-09-13T03:38:19;100230.84;;;14.32;100.00
18987;BME280;9627;59.236;18.142;2022-09-13T03:40:47;100219.66;;;14.42;100.00
18987;BME280;9627;59.236;18.142;2022-09-13T03:43:17;100222.09;;;14.43;100.00
18987;BME280;9627;59.236;18.142;2022-09-13T03:45:48;100209.06;;;14.35;100.00
18987;BME280;9627;59.236;18.142;2022-09-13T03:48:18;100212.16;;;14.32;100.00
18987;BME280;9627;59.236;18.142;2022-09-13T03:50:46;100195.19;;;14.45;100.00
18987;BME280;9627;59.236;18.142;2022-09-13T03:53:15;100196.00;;;14.45;100.00
18987;BME280;9627;59.236;18.142;2022-09-13T03:55:44;100194.16;;;14.46;100.00
18987;BME280;9627;59.236;18.142;2022-09-13T03:58:11;100189.63;;;14.46;100.00
18987;BME280;9627;59.236;18.142;2022-09-13T04:00:38;100195.56;;;14.48;100.00
18987;BME280;9627;59.236;18.142;2022-09-13T04:03:06;100189.53;;;14.53;100.00
18987;BME280;9627;59.236;18.142;2022-09-13T04:05:34;100181.41;;;14.48;100.00
18987;BME280;9627;59.236;18.142;2022-09-13T04:08:02;100178.50;;;14.49;100.00
18987;BME280;9627;59.236;18.142;2022-09-13T04:10:30;100177.69;;;14.49;100.00
18987;BME280;9627;59.236;18.142;2022-09-13T04:12:57;100170.06;;;14.52;100.00
18987;BME280;9627;59.236;18.142;2022-09-13T04:15:25;100171.31;;;14.50;100.00
18987;BME280;9627;59.236;18.142;2022-09-13T04:17:52;100162.94;;;14.46;100.00
18987;BME280;9627;59.236;18.142;2022-09-13T04:20:19;100146.81;;;14.53;100.00
18987;BME280;9627;59.236;18.142;2022-09-13T04:22:51;100148.81;;;14.57;100.00
18987;BME280;9627;59.236;18.142;2022-09-13T04:25:18;100145.72;;;14.60;100.00
18987;BME280;9627;59.236;18.142;2022-09-13T04:27:46;100152.91;;;14.60;100.00
18987;BME280;9627;59.236;18.142;2022-09-13T04:30:12;100145.13;;;14.58;100.00
18987;BME280;9627;59.236;18.142;2022-09-13T04:32:41;100130.97;;;14.58;100.00
18987;BME280;9627;59.236;18.142;2022-09-13T04:35:08;100140.16;;;14.62;100.00
18987;BME280;9627;59.236;18.142;2022-09-13T04:37:35;100133.31;;;14.66;100.00
18987;BME280;9627;59.236;18.142;2022-09-13T04:40:05;100132.63;;;14.70;100.00
18987;BME280;9627;59.236;18.142;2022-09-13T04:42:32;100135.19;;;14.65;100.00
18987;BME280;9627;59.236;18.142;2022-09-13T04:44:59;100131.44;;;14.66;100.00
18987;BME280;9627;59.236;18.142;2022-09-13T04:47:26;100131.25;;;14.68;100.00
18987;BME280;9627;59.236;18.142;2022-09-13T04:49:52;100125.91;;;14.68;100.00
18987;BME280;9627;59.236;18.142;2022-09-13T04:52:19;100124.38;;;14.72;100.00
18987;BME280;9627;59.236;18.142;2022-09-13T04:54:46;100132.19;;;14.73;100.00
18987;BME280;9627;59.236;18.142;2022-09-13T04:57:15;100113.69;;;14.72;100.00
18987;BME280;9627;59.236;18.142;2022-09-13T04:59:42;100115.75;;;14.58;100.00
18987;BME280;9627;59.236;18.142;2022-09-13T05:02:09;100114.94;;;14.58;100.00
18987;BME280;9627;59.236;18.142;2022-09-13T05:04:36;100114.41;;;14.67;100.00
18987;BME280;9627;59.236;18.142;2022-09-13T05:07:03;100102.22;;;14.71;100.00
18987;BME280;9627;59.236;18.142;2022-09-13T05:09:30;100103.13;;;14.65;100.00
18987;BME280;9627;59.236;18.142;2022-09-13T05:11:57;100094.81;;;14.73;100.00
18987;BME280;9627;59.236;18.142;2022-09-13T05:14:26;100096.88;;;14.71;100.00
18987;BME280;9627;59.236;18.142;2022-09-13T05:16:52;100102.00;;;14.73;100.00
18987;BME280;9627;59.236;18.142;2022-09-13T05:19:19;100094.94;;;14.78;100.00
18987;BME280;9627;59.236;18.142;2022-09-13T05:21:46;100084.25;;;14.78;100.00
18987;BME280;9627;59.236;18.142;2022-09-13T05:24:13;100084.91;;;14.74;100.00
18987;BME280;9627;59.236;18.142;2022-09-13T05:26:40;100095.16;;;14.77;100.00
18987;BME280;9627;59.236;18.142;2022-09-13T05:29:07;100074.03;;;14.75;100.00
18987;BME280;9627;59.236;18.142;2022-09-13T05:31:37;100076.47;;;14.77;100.00
18987;BME280;9627;59.236;18.142;2022-09-13T05:34:05;100070.41;;;14.81;100.00
18987;BME280;9627;59.236;18.142;2022-09-13T05:36:32;100076.22;;;14.78;100.00
18987;BME280;9627;59.236;18.142;2022-09-13T05:38:59;100060.66;;;14.75;100.00
18987;BME280;9627;59.236;18.142;2022-09-13T05:41:26;100057.41;;;14.73;100.00
18987;BME280;9627;59.236;18.142;2022-09-13T05:43:53;100058.13;;;14.80;100.00
18987;BME280;9627;59.236;18.142;2022-09-13T05:46:20;100061.16;;;14.84;100.00
18987;BME280;9627;59.236;18.142;2022-09-13T05:48:49;100055.56;;;14.85;100.00
18987;BME280;9627;59.236;18.142;2022-09-13T05:51:16;100051.16;;;14.91;100.00
18987;BME280;9627;59.236;18.142;2022-09-13T05:53:45;100044.31;;;14.95;100.00
18987;BME280;9627;59.236;18.142;2022-09-13T05:56:12;100042.34;;;14.91;100.00
18987;BME280;9627;59.236;18.142;2022-09-13T05:58:39;100037.81;;;14.91;100.00
18987;BME280;9627;59.236;18.142;2022-09-13T06:01:07;100045.81;;;14.79;100.00
18987;BME280;9627;59.236;18.142;2022-09-13T06:03:34;100027.13;;;14.91;100.00
18987;BME280;9627;59.236;18.142;2022-09-13T06:06:03;100028.28;;;14.95;100.00
18987;BME280;9627;59.236;18.142;2022-09-13T06:08:31;100023.66;;;14.91;100.00
18987;BME280;9627;59.236;18.142;2022-09-13T06:10:59;100019.09;;;14.91;100.00
18987;BME280;9627;59.236;18.142;2022-09-13T06:13:27;100029.59;;;14.93;100.00
18987;BME280;9627;59.236;18.142;2022-09-13T06:15:55;100017.47;;;14.90;100.00
18987;BME280;9627;59.236;18.142;2022-09-13T06:18:22;100014.72;;;14.97;100.00
18987;BME280;9627;59.236;18.142;2022-09-13T06:20:49;100004.22;;;14.83;100.00
18987;BME280;9627;59.236;18.142;2022-09-13T06:23:19;99994.91;;;14.74;100.00
18987;BME280;9627;59.236;18.142;2022-09-13T06:25:46;99987.59;;;14.70;100.00
18987;BME280;9627;59.236;18.142;2022-09-13T06:28:13;99996.28;;;14.65;100.00
18987;BME280;9627;59.236;18.142;2022-09-13T06:30:39;99995.03;;;14.68;100.00
18987;BME280;9627;59.236;18.142;2022-09-13T06:33:06;99983.03;;;14.70;100.00
18987;BME280;9627;59.236;18.142;2022-09-13T06:35:33;99984.44;;;14.73;100.00
18987;BME280;9627;59.236;18.142;2022-09-13T06:38:00;99982.97;;;14.77;100.00
18987;BME280;9627;59.236;18.142;2022-09-13T06:40:29;99984.72;;;14.53;100.00
18987;BME280;9627;59.236;18.142;2022-09-13T06:42:56;99971.69;;;14.34;100.00
18987;BME280;9627;59.236;18.142;2022-09-13T06:45:23;99975.84;;;14.30;100.00
18987;BME280;9627;59.236;18.142;2022-09-13T06:47:52;99966.25;;;14.22;100.00
18987;BME280;9627;59.236;18.142;2022-09-13T06:50:19;99941.66;;;14.20;100.00
18987;BME280;9627;59.236;18.142;2022-09-13T06:52:47;99951.16;;;14.16;100.00
18987;BME280;9627;59.236;18.142;2022-09-13T06:55:14;99960.94;;;14.22;100.00
18987;BME280;9627;59.236;18.142;2022-09-13T06:57:42;99952.91;;;14.22;100.00
18987;BME280;9627;59.236;18.142;2022-09-13T07:00:09;99939.94;;;14.26;100.00
18987;BME280;9627;59.236;18.142;2022-09-13T07:02:37;99952.84;;;14.29;100.00
18987;BME280;9627;59.236;18.142;2022-09-13T07:05:04;99938.81;;;14.33;100.00
18987;BME280;9627;59.236;18.142;2022-09-13T07:07:31;99940.78;;;14.38;100.00
18987;BME280;9627;59.236;18.142;2022-09-13T07:09:57;99938.28;;;14.43;100.00
18987;BME280;9627;59.236;18.142;2022-09-13T07:12:25;99931.44;;;14.47;100.00
18987;BME280;9627;59.236;18.142;2022-09-13T07:14:53;99922.84;;;14.45;100.00
18987;BME280;9627;59.236;18.142;2022-09-13T07:17:20;99927.47;;;14.49;100.00
18987;BME280;9627;59.236;18.142;2022-09-13T07:19:47;99921.94;;;14.51;100.00
18987;BME280;9627;59.236;18.142;2022-09-13T07:22:14;99920.06;;;14.51;100.00
18987;BME280;9627;59.236;18.142;2022-09-13T07:24:41;99918.22;;;14.52;100.00
18987;BME280;9627;59.236;18.142;2022-09-13T07:27:08;99920.06;;;14.51;100.00
18987;BME280;9627;59.236;18.142;2022-09-13T07:29:35;99907.63;;;14.45;100.00
18987;BME280;9627;59.236;18.142;2022-09-13T07:32:03;99907.50;;;14.40;100.00
18987;BME280;9627;59.236;18.142;2022-09-13T07:34:30;99917.00;;;14.36;100.00
18987;BME280;9627;59.236;18.142;2022-09-13T07:36:57;99900.38;;;14.34;100.00
18987;BME280;9627;59.236;18.142;2022-09-13T07:39:24;99906.78;;;14.33;100.00
18987;BME280;9627;59.236;18.142;2022-09-13T07:41:51;99906.00;;;14.26;100.00
18987;BME280;9627;59.236;18.142;2022-09-13T07:44:17;99896.47;;;14.19;100.00
18987;BME280;9627;59.236;18.142;2022-09-13T07:46:44;99899.63;;;14.16;100.00
18987;BME280;9627;59.236;18.142;2022-09-13T07:49:15;99888.59;;;14.12;100.00
18987;BME280;9627;59.236;18.142;2022-09-13T07:51:43;99888.91;;;14.04;100.00
18987;BME280;9627;59.236;18.142;2022-09-13T07:54:10;99897.72;;;14.05;100.00
18987;BME280;9627;59.236;18.142;2022-09-13T07:56:38;99890.53;;;14.05;100.00
18987;BME280;9627;59.236;18.142;2022-09-13T07:59:06;99892.22;;;13.99;100.00
18987;BME280;9627;59.236;18.142;2022-09-13T08:01:33;99881.78;;;13.98;100.00
18987;BME280;9627;59.236;18.142;2022-09-13T08:04:01;99893.50;;;13.97;100.00
18987;BME280;9627;59.236;18.142;2022-09-13T08:06:31;99880.47;;;13.89;100.00
18987;BME280;9627;59.236;18.142;2022-09-13T08:08:58;99886.41;;;13.91;100.00
18987;BME280;9627;59.236;18.142;2022-09-13T08:11:26;99883.63;;;13.86;100.00
18987;BME280;9627;59.236;18.142;2022-09-13T08:13:54;99869.59;;;13.90;100.00
18987;BME280;9627;59.236;18.142;2022-09-13T08:16:22;99860.03;;;13.83;100.00
18987;BME280;9627;59.236;18.142;2022-09-13T08:18:50;99854.69;;;13.83;100.00
18987;BME280;9627;59.236;18.142;2022-09-13T08:21:17;99864.34;;;13.84;100.00
18987;BME280;9627;59.236;18.142;2022-09-13T08:23:46;99846.56;;;13.78;100.00
18987;BME280;9627;59.236;18.142;2022-09-13T08:26:13;99844.13;;;13.76;100.00
18987;BME280;9627;59.236;18.142;2022-09-13T08:28:40;99853.16;;;13.75;100.00
18987;BME280;9627;59.236;18.142;2022-09-13T08:31:09;99848.41;;;13.77;100.00
18987;BME280;9627;59.236;18.142;2022-09-13T08:33:36;99834.84;;;13.79;100.00
18987;BME280;9627;59.236;18.142;2022-09-13T08:36:03;99846.94;;;13.81;100.00
18987;BME280;9627;59.236;18.142;2022-09-13T08:38:30;99830.69;;;13.83;100.00
18987;BME280;9627;59.236;18.142;2022-09-13T08:41:01;99833.06;;;13.91;100.00
18987;BME280;9627;59.236;18.142;2022-09-13T08:43:33;99833.13;;;13.84;100.00
18987;BME280;9627;59.236;18.142;2022-09-13T08:46:04;99839.59;;;13.77;100.00
18987;BME280;9627;59.236;18.142;2022-09-13T08:48:32;99825.47;;;13.76;100.00
18987;BME280;9627;59.236;18.142;2022-09-13T08:51:02;99815.00;;;13.75;100.00
18987;BME280;9627;59.236;18.142;2022-09-13T08:53:30;99818.72;;;13.74;100.00
18987;BME280;9627;59.236;18.142;2022-09-13T08:56:00;99820.72;;;13.78;100.00
18987;BME280;9627;59.236;18.142;2022-09-13T08:58:36;99811.44;;;13.81;100.00
18987;BME280;9627;59.236;18.142;2022-09-13T09:01:07;99803.91;;;13.78;100.00
18987;BME280;9627;59.236;18.142;2022-09-13T09:03:37;99807.59;;;13.77;100.00
18987;BME280;9627;59.236;18.142;2022-09-13T09:06:10;99817.47;;;13.76;100.00
18987;BME280;9627;59.236;18.142;2022-09-13T09:08:39;99786.13;;;13.72;100.00
18987;BME280;9627;59.236;18.142;2022-09-13T09:11:12;99797.81;;;13.71;100.00
18987;BME280;9627;59.236;18.142;2022-09-13T09:13:43;99784.72;;;13.69;100.00
18987;BME280;9627;59.236;18.142;2022-09-13T09:16:16;99782.88;;;13.70;100.00
18987;BME280;9627;59.236;18.142;2022-09-13T09:18:50;99780.88;;;13.65;100.00
18987;BME280;9627;59.236;18.142;2022-09-13T09:21:18;99776.94;;;13.68;100.00
18987;BME280;9627;59.236;18.142;2022-09-13T09:23:47;99774.75;;;13.65;100.00
18987;BME280;9627;59.236;18.142;2022-09-13T09:26:17;99752.19;;;13.49;100.00
18987;BME280;9627;59.236;18.142;2022-09-13T09:28:45;99766.88;;;13.70;100.00
18987;BME280;9627;59.236;18.142;2022-09-13T09:31:14;99752.06;;;13.74;100.00
18987;BME280;9627;59.236;18.142;2022-09-13T09:33:46;99744.16;;;13.79;100.00
18987;BME280;9627;59.236;18.142;2022-09-13T09:36:18;99740.25;;;13.93;100.00
18987;BME280;9627;59.236;18.142;2022-09-13T09:38:49;99738.78;;;13.97;100.00
18987;BME280;9627;59.236;18.142;2022-09-13T09:41:22;99729.84;;;14.03;100.00
18987;BME280;9627;59.236;18.142;2022-09-13T09:43:53;99724.03;;;14.06;100.00
18987;BME280;9627;59.236;18.142;2022-09-13T09:46:25;99721.84;;;14.03;100.00
18987;BME280;9627;59.236;18.142;2022-09-13T09:48:54;99718.22;;;14.09;100.00
18987;BME280;9627;59.236;18.142;2022-09-13T09:51:22;99705.84;;;14.15;100.00
18987;BME280;9627;59.236;18.142;2022-09-13T09:53:52;99716.16;;;14.11;100.00
18987;BME280;9627;59.236;18.142;2022-09-13T09:56:23;99699.34;;;14.11;100.00
18987;BME280;9627;59.236;18.142;2022-09-13T09:58:50;99692.03;;;14.06;100.00
18987;BME280;9627;59.236;18.142;2022-09-13T10:01:21;99686.44;;;13.96;100.00
18987;BME280;9627;59.236;18.142;2022-09-13T10:03:49;99689.34;;;13.94;100.00
18987;BME280;9627;59.236;18.142;2022-09-13T10:06:18;99668.59;;;14.08;100.00
18987;BME280;9627;59.236;18.142;2022-09-13T10:08:46;99667.53;;;14.09;100.00
18987;BME280;9627;59.236;18.142;2022-09-13T10:11:19;99673.69;;;14.21;100.00
18987;BME280;9627;59.236;18.142;2022-09-13T10:13:59;99671.50;;;14.18;100.00
18987;BME280;9627;59.236;18.142;2022-09-13T10:16:26;99667.66;;;14.14;100.00
18987;BME280;9627;59.236;18.142;2022-09-13T10:18:54;99673.34;;;14.18;100.00
18987;BME280;9627;59.236;18.142;2022-09-13T10:21:41;99658.25;;;14.23;100.00
18987;BME280;9627;59.236;18.142;2022-09-13T10:24:14;99656.66;;;14.22;100.00
18987;BME280;9627;59.236;18.142;2022-09-13T10:26:42;99653.84;;;14.17;100.00
18987;BME280;9627;59.236;18.142;2022-09-13T10:29:12;99650.03;;;14.13;100.00
18987;BME280;9627;59.236;18.142;2022-09-13T10:31:40;99646.75;;;14.23;100.00
18987;BME280;9627;59.236;18.142;2022-09-13T10:34:10;99644.09;;;14.23;100.00
18987;BME280;9627;59.236;18.142;2022-09-13T10:36:42;99634.81;;;14.14;100.00
18987;BME280;9627;59.236;18.142;2022-09-13T10:39:12;99627.31;;;14.11;100.00
18987;BME280;9627;59.236;18.142;2022-09-13T10:41:42;99622.06;;;14.04;100.00
18987;BME280;9627;59.236;18.142;2022-09-13T10:44:21;99612.22;;;14.16;100.00
18987;BME280;9627;59.236;18.142;2022-09-13T10:46:50;99599.66;;;14.40;100.00
18987;BME280;9627;59.236;18.142;2022-09-13T10:52:11;99592.19;;;14.53;100.00
18987;BME280;9627;59.236;18.142;2022-09-13T10:54:49;99601.00;;;14.65;100.00
18987;BME280;9627;59.236;18.142;2022-09-13T10:57:28;99582.53;;;14.64;100.00
18987;BME280;9627;59.236;18.142;2022-09-13T10:59:59;99568.13;;;14.65;100.00
18987;BME280;9627;59.236;18.142;2022-09-13T11:02:38;99561.84;;;14.71;100.00
18987;BME280;9627;59.236;18.142;2022-09-13T11:05:18;99547.13;;;14.57;100.00
18987;BME280;9627;59.236;18.142;2022-09-13T11:07:52;99553.28;;;14.57;100.00
18987;BME280;9627;59.236;18.142;2022-09-13T11:10:26;99539.19;;;14.73;100.00
18987;BME280;9627;59.236;18.142;2022-09-13T11:12:57;99558.28;;;14.82;100.00
18987;BME280;9627;59.236;18.142;2022-09-13T11:15:33;99550.84;;;14.84;100.00
18987;BME280;9627;59.236;18.142;2022-09-13T11:18:18;99523.00;;;14.80;100.00
18987;BME280;9627;59.236;18.142;2022-09-13T11:20:51;99532.31;;;14.77;100.00
18987;BME280;9627;59.236;18.142;2022-09-13T11:23:39;99534.81;;;14.84;100.00
18987;BME280;9627;59.236;18.142;2022-09-13T11:26:16;99537.88;;;14.76;100.00
18987;BME280;9627;59.236;18.142;2022-09-13T11:28:51;99539.81;;;14.64;100.00
18987;BME280;9627;59.236;18.142;2022-09-13T11:31:23;99540.47;;;14.71;100.00
18987;BME280;9627;59.236;18.142;2022-09-13T11:33:59;99525.19;;;14.83;100.00
18987;BME280;9627;59.236;18.142;2022-09-13T11:36:37;99528.22;;;15.20;100.00
18987;BME280;9627;59.236;18.142;2022-09-13T11:39:10;99519.97;;;15.21;100.00
18987;BME280;9627;59.236;18.142;2022-09-13T11:41:42;99504.59;;;15.28;100.00
18987;BME280;9627;59.236;18.142;2022-09-13T11:44:27;99492.50;;;15.26;100.00
18987;BME280;9627;59.236;18.142;2022-09-13T11:47:01;99503.28;;;14.98;100.00
18987;BME280;9627;59.236;18.142;2022-09-13T11:49:36;99489.91;;;14.81;100.00
18987;BME280;9627;59.236;18.142;2022-09-13T11:52:11;99502.00;;;14.72;100.00
18987;BME280;9627;59.236;18.142;2022-09-13T11:54:44;99480.63;;;14.72;100.00
18987;BME280;9627;59.236;18.142;2022-09-13T11:57:17;99475.66;;;14.47;100.00
18987;BME280;9627;59.236;18.142;2022-09-13T11:59:48;99474.50;;;14.43;100.00
18987;BME280;9627;59.236;18.142;2022-09-13T12:02:22;99469.09;;;14.38;100.00
18987;BME280;9627;59.236;18.142;2022-09-13T12:04:53;99465.19;;;14.29;100.00
18987;BME280;9627;59.236;18.142;2022-09-13T12:07:24;99462.28;;;14.31;100.00
18987;BME280;9627;59.236;18.142;2022-09-13T12:09:57;99462.84;;;14.21;100.00
18987;BME280;9627;59.236;18.142;2022-09-13T12:12:26;99461.00;;;14.22;100.00
18987;BME280;9627;59.236;18.142;2022-09-13T12:14:54;99458.09;;;14.23;100.00
18987;BME280;9627;59.236;18.142;2022-09-13T12:17:26;99443.34;;;14.21;100.00
18987;BME280;9627;59.236;18.142;2022-09-13T12:19:54;99451.97;;;14.11;100.00
18987;BME280;9627;59.236;18.142;2022-09-13T12:22:23;99456.16;;;14.07;100.00
18987;BME280;9627;59.236;18.142;2022-09-13T12:24:53;99445.72;;;14.06;100.00
18987;BME280;9627;59.236;18.142;2022-09-13T12:27:22;99440.06;;;14.02;100.00
18987;BME280;9627;59.236;18.142;2022-09-13T12:29:52;99455.25;;;14.02;100.00
18987;BME280;9627;59.236;18.142;2022-09-13T12:32:20;99431.25;;;14.02;100.00
18987;BME280;9627;59.236;18.142;2022-09-13T12:34:53;99423.03;;;14.03;100.00
18987;BME280;9627;59.236;18.142;2022-09-13T12:37:39;99419.88;;;14.06;100.00
18987;BME280;9627;59.236;18.142;2022-09-13T12:40:18;99407.47;;;14.00;100.00
18987;BME280;9627;59.236;18.142;2022-09-13T12:42:58;99433.00;;;13.96;100.00
18987;BME280;9627;59.236;18.142;2022-09-13T12:45:32;99420.81;;;14.00;100.00
18987;BME280;9627;59.236;18.142;2022-09-13T12:48:05;99393.69;;;14.03;100.00
18987;BME280;9627;59.236;18.142;2022-09-13T12:50:45;99400.53;;;13.99;100.00
18987;BME280;9627;59.236;18.142;2022-09-13T12:53:24;99392.75;;;13.97;100.00
18987;BME280;9627;59.236;18.142;2022-09-13T12:55:58;99392.91;;;13.91;100.00
18987;BME280;9627;59.236;18.142;2022-09-13T13:01:09;99365.00;;;13.82;100.00
18987;BME280;9627;59.236;18.142;2022-09-13T13:03:42;99380.50;;;13.85;100.00
18987;BME280;9627;59.236;18.142;2022-09-13T13:06:16;99360.88;;;13.91;100.00
18987;BME280;9627;59.236;18.142;2022-09-13T13:08:47;99343.81;;;13.92;100.00
18987;BME280;9627;59.236;18.142;2022-09-13T13:11:15;99337.13;;;13.89;100.00